Time;durP1;ratioP1;P1;durP2;ratioP2;P2;SDS_P1;SDS_P2;PMS_P1;PMS_P2;Temp;Humidity;BMP_temperature;BMP_pressure;BME280_temperature;BME280_humidity;BME280_pressure;Samples;Min_cycle;Max_cycle;Signal;HPM_P1;HPM_P2
2020/12/17 00:00:15;;;;;;;14.37;11.27;;;;;;;2.71;100.00;97325.19;5054665;28;20194;-94
2020/12/17 00:02:42;;;;;;;16.83;11.77;;;;;;;2.75;100.00;97326.69;5054345;28;20205;-94
2020/12/17 00:05:09;;;;;;;15.33;10.97;;;;;;;2.64;100.00;97328.19;5054341;28;20194;-95
2020/12/17 00:07:38;;;;;;;14.40;10.73;;;;;;;2.51;100.00;97317.63;5054810;28;20622;-94
2020/12/17 00:10:05;;;;;;;14.43;10.53;;;;;;;2.65;100.00;97319.47;5054242;28;20209;-94
2020/12/17 00:12:36;;;;;;;12.90;10.00;;;;;;;2.62;100.00;97316.13;5054120;28;20202;-95
2020/12/17 00:15:04;;;;;;;11.07;8.80;;;;;;;2.65;100.00;97312.53;5054431;28;20193;-94
2020/12/17 00:17:31;;;;;;;14.20;9.50;;;;;;;2.56;100.00;97324.25;5054103;28;20194;-94
2020/12/17 00:19:58;;;;;;;12.87;9.10;;;;;;;2.48;100.00;97320.41;5054223;28;20209;-94
2020/12/17 00:22:25;;;;;;;13.13;9.33;;;;;;;2.59;100.00;97325.84;5054085;28;20194;-95
2020/12/17 00:24:53;;;;;;;10.87;8.83;;;;;;;2.76;100.00;97323.16;5054468;28;20201;-95
2020/12/17 00:27:19;;;;;;;11.83;9.10;;;;;;;2.59;100.00;97324.06;5053830;28;20678;-94
2020/12/17 00:29:46;;;;;;;16.97;10.87;;;;;;;2.72;100.00;97332.03;5053759;28;20225;-92
2020/12/17 00:32:14;;;;;;;25.93;15.80;;;;;;;2.47;100.00;97319.56;5054019;28;20216;-93
2020/12/17 00:34:41;;;;;;;14.33;11.20;;;;;;;2.41;100.00;97329.44;5053185;28;20248;-94
2020/12/17 00:37:08;;;;;;;13.47;10.57;;;;;;;2.37;100.00;97329.59;5053755;28;20193;-94
2020/12/17 00:39:34;;;;;;;15.10;12.30;;;;;;;2.40;100.00;97326.00;5054014;28;20201;-93
2020/12/17 00:42:04;;;;;;;12.10;9.83;;;;;;;2.51;100.00;97323.66;5053723;28;20676;-94
2020/12/17 00:44:31;;;;;;;12.27;9.37;;;;;;;2.42;100.00;97331.09;5053862;28;20233;-95
2020/12/17 00:46:58;;;;;;;14.50;9.67;;;;;;;2.48;100.00;97318.63;5054144;28;20683;-94
2020/12/17 00:49:26;;;;;;;15.50;10.80;;;;;;;2.31;100.00;97322.13;5053781;28;20773;-94
2020/12/17 00:51:59;;;;;;;13.73;10.50;;;;;;;2.25;100.00;97319.03;5053544;28;20240;-93
2020/12/17 00:54:26;;;;;;;13.47;9.13;;;;;;;2.27;100.00;97328.41;5053818;28;20663;-93
2020/12/17 00:56:53;;;;;;;15.33;10.77;;;;;;;2.38;100.00;97318.28;5053628;28;20198;-94
2020/12/17 00:59:21;;;;;;;14.03;11.40;;;;;;;2.42;100.00;97316.34;5053520;28;20261;-94
2020/12/17 01:01:48;;;;;;;14.30;10.80;;;;;;;2.32;100.00;97305.66;5053459;28;20205;-93
2020/12/17 01:04:14;;;;;;;14.90;10.50;;;;;;;2.36;100.00;97308.94;5053694;28;20220;-94
2020/12/17 01:06:42;;;;;;;15.03;11.70;;;;;;;2.34;100.00;97305.56;5053710;28;20229;-93
2020/12/17 01:09:10;;;;;;;15.80;11.23;;;;;;;2.25;100.00;97303.44;5053332;28;20312;-94
2020/12/17 01:11:37;;;;;;;14.27;11.03;;;;;;;2.25;100.00;97311.25;5053474;28;20581;-94
2020/12/17 01:14:04;;;;;;;12.87;10.40;;;;;;;2.35;100.00;97305.47;5053159;28;20273;-94
2020/12/17 01:16:32;;;;;;;12.47;9.80;;;;;;;2.25;100.00;97306.91;5053287;28;20222;-94
2020/12/17 01:18:59;;;;;;;14.27;10.53;;;;;;;2.32;100.00;97310.00;5053514;28;20259;-94
2020/12/17 01:21:26;;;;;;;14.07;10.27;;;;;;;2.45;100.00;97303.22;5053378;28;20232;-95
2020/12/17 01:23:53;;;;;;;13.80;10.17;;;;;;;2.45;100.00;97305.81;5053297;28;20193;-94
2020/12/17 01:26:19;;;;;;;12.30;10.27;;;;;;;2.50;100.00;97293.44;5053150;28;20279;-93
2020/12/17 01:28:46;;;;;;;12.17;9.40;;;;;;;2.62;100.00;97297.13;5052930;28;20749;-94
2020/12/17 01:31:14;;;;;;;13.63;10.60;;;;;;;2.60;100.00;97291.19;5053130;28;20269;-94
2020/12/17 01:33:43;;;;;;;12.73;10.17;;;;;;;2.58;100.00;97299.03;5053368;28;20319;-94
2020/12/17 01:36:11;;;;;;;12.27;9.10;;;;;;;2.51;100.00;97302.06;5052289;28;20197;-94
2020/12/17 01:38:40;;;;;;;13.30;9.87;;;;;;;2.49;100.00;97296.09;5053031;28;20705;-94
2020/12/17 01:41:09;;;;;;;10.40;8.97;;;;;;;2.44;100.00;97292.94;5053022;28;20288;-94
2020/12/17 01:43:37;;;;;;;13.23;9.00;;;;;;;2.36;100.00;97299.38;5053177;28;20190;-94
2020/12/17 01:46:04;;;;;;;13.20;9.90;;;;;;;2.33;100.00;97299.53;5054786;28;20277;-94
2020/12/17 01:48:33;;;;;;;13.80;10.57;;;;;;;2.37;100.00;97295.03;5056979;28;20218;-94
2020/12/17 01:51:02;;;;;;;12.13;9.67;;;;;;;2.57;100.00;97299.97;5057077;28;20237;-95
2020/12/17 01:53:29;;;;;;;10.47;8.90;;;;;;;2.42;100.00;97295.59;5057296;28;20224;-94
2020/12/17 01:56:00;;;;;;;9.97;8.67;;;;;;;2.59;100.00;97295.53;5057052;28;20198;-95
2020/12/17 01:58:32;;;;;;;11.70;8.43;;;;;;;2.56;100.00;97298.31;5057021;28;20598;-94
2020/12/17 02:01:01;;;;;;;11.90;8.70;;;;;;;2.42;100.00;97292.19;5057080;28;20193;-94
2020/12/17 02:03:28;;;;;;;11.83;9.30;;;;;;;2.44;100.00;97287.75;5056526;28;20202;-95
2020/12/17 02:05:57;;;;;;;11.87;9.70;;;;;;;2.48;100.00;97287.50;5056690;28;20252;-94
2020/12/17 02:08:28;;;;;;;11.40;8.33;;;;;;;2.59;100.00;97289.50;5056848;28;20222;-94
2020/12/17 02:10:55;;;;;;;14.83;9.13;;;;;;;2.64;100.00;97299.66;5056854;28;20650;-94
2020/12/17 02:13:33;;;;;;;12.67;8.70;;;;;;;2.62;100.00;97297.13;5056560;28;20663;-94
2020/12/17 02:16:00;;;;;;;13.27;9.73;;;;;;;2.71;100.00;97298.38;5056600;28;20193;-95
2020/12/17 02:18:27;;;;;;;13.10;9.50;;;;;;;2.49;100.00;97298.72;5056824;28;20570;-94
2020/12/17 02:20:54;;;;;;;12.70;8.97;;;;;;;2.38;100.00;97294.09;5056279;28;20208;-96
2020/12/17 02:23:22;;;;;;;11.77;8.93;;;;;;;2.14;100.00;97304.88;5056516;28;20198;-94
2020/12/17 02:25:50;;;;;;;12.80;9.87;;;;;;;2.32;100.00;97303.06;5056597;28;20193;-95
2020/12/17 02:28:17;;;;;;;14.23;8.80;;;;;;;2.11;100.00;97299.88;5056303;28;20268;-94
2020/12/17 02:30:44;;;;;;;11.23;8.57;;;;;;;2.08;100.00;97300.03;5056199;28;20241;-94
2020/12/17 02:33:12;;;;;;;12.57;8.40;;;;;;;2.08;100.00;97299.19;5056136;28;20213;-94
2020/12/17 02:35:39;;;;;;;12.17;9.00;;;;;;;2.22;100.00;97293.25;5056285;28;20237;-94
2020/12/17 02:38:07;;;;;;;12.13;9.33;;;;;;;2.12;100.00;97292.91;5056070;28;20201;-93
2020/12/17 02:40:34;;;;;;;12.43;9.23;;;;;;;2.07;100.00;97294.91;5055986;28;20229;-94
2020/12/17 02:43:02;;;;;;;16.57;10.07;;;;;;;2.06;100.00;97301.84;5056017;28;20198;-94
2020/12/17 02:45:29;;;;;;;10.97;7.80;;;;;;;1.93;100.00;97294.78;5056008;28;20678;-94
2020/12/17 02:47:56;;;;;;;12.60;9.07;;;;;;;2.07;100.00;97297.50;5055578;28;20225;-95
2020/12/17 02:50:23;;;;;;;10.30;8.53;;;;;;;2.02;100.00;97299.50;5055979;28;20265;-94
2020/12/17 02:52:49;;;;;;;10.63;8.37;;;;;;;2.04;100.00;97298.47;5055833;28;20201;-95
2020/12/17 02:55:16;;;;;;;11.43;7.87;;;;;;;2.09;100.00;97295.66;5056107;28;20201;-94
2020/12/17 02:57:43;;;;;;;10.60;8.30;;;;;;;2.09;100.00;97303.44;5056179;28;20198;-94
2020/12/17 03:00:12;;;;;;;9.33;6.70;;;;;;;2.25;100.00;97295.66;5055896;28;20213;-93
2020/12/17 03:02:39;;;;;;;13.43;9.03;;;;;;;2.05;100.00;97296.75;5055919;28;20655;-93
2020/12/17 03:05:06;;;;;;;23.87;16.13;;;;;;;2.02;100.00;97294.31;5055439;28;20198;-94
2020/12/17 03:07:33;;;;;;;15.30;10.60;;;;;;;2.10;100.00;97292.97;5055289;28;20201;-93
2020/12/17 03:10:00;;;;;;;13.17;9.40;;;;;;;1.98;100.00;97293.66;5055568;28;20202;-93
2020/12/17 03:12:27;;;;;;;10.47;7.63;;;;;;;2.08;100.00;97294.84;5055719;28;20204;-94
2020/12/17 03:14:54;;;;;;;8.70;6.80;;;;;;;2.19;100.00;97298.63;5055553;28;20245;-94
2020/12/17 03:17:22;;;;;;;9.20;6.93;;;;;;;2.30;100.00;97297.13;5055563;28;20245;-94
2020/12/17 03:19:49;;;;;;;10.57;7.40;;;;;;;2.38;100.00;97297.53;5055208;28;20207;-94
2020/12/17 03:22:15;;;;;;;8.33;7.07;;;;;;;2.47;100.00;97298.81;5055743;28;20198;-94
2020/12/17 03:24:42;;;;;;;9.60;7.33;;;;;;;2.39;100.00;97295.78;5055200;28;20190;-95
2020/12/17 03:27:09;;;;;;;9.23;7.50;;;;;;;2.43;100.00;97306.84;5055182;28;20193;-94
2020/12/17 03:29:36;;;;;;;8.93;7.20;;;;;;;2.48;100.00;97305.66;5055399;28;20658;-93
2020/12/17 03:32:03;;;;;;;8.73;7.67;;;;;;;2.29;100.00;97305.81;5055175;28;20276;-94
2020/12/17 03:34:30;;;;;;;11.87;8.93;;;;;;;2.39;100.00;97306.19;5054891;28;20208;-94
2020/12/17 03:36:57;;;;;;;8.90;8.03;;;;;;;2.31;100.00;97310.91;5055302;28;20194;-94
2020/12/17 03:39:24;;;;;;;11.60;8.33;;;;;;;2.23;100.00;97315.69;5054897;28;20667;-93
2020/12/17 03:41:51;;;;;;;10.03;7.70;;;;;;;2.16;100.00;97322.13;5055172;28;20225;-93
2020/12/17 03:44:18;;;;;;;10.27;7.70;;;;;;;2.18;100.00;97322.84;5054710;28;20256;-93
2020/12/17 03:46:45;;;;;;;9.90;8.03;;;;;;;2.18;100.00;97323.69;5054973;28;20244;-94
2020/12/17 03:49:12;;;;;;;11.50;7.90;;;;;;;2.16;100.00;97314.34;5054916;28;20284;-94
2020/12/17 03:51:40;;;;;;;9.27;7.37;;;;;;;2.09;100.00;97319.84;5054535;28;20194;-94
2020/12/17 03:54:07;;;;;;;10.17;7.53;;;;;;;2.17;100.00;97318.59;5054540;28;20281;-94
2020/12/17 03:56:33;;;;;;;9.07;6.70;;;;;;;2.21;100.00;97315.75;5054609;28;20251;-95
2020/12/17 03:59:00;;;;;;;9.87;7.40;;;;;;;2.33;100.00;97306.50;5054405;28;20198;-94
2020/12/17 04:01:27;;;;;;;16.43;10.40;;;;;;;2.36;100.00;97306.34;5054910;28;20206;-93
2020/12/17 04:03:54;;;;;;;14.83;11.30;;;;;;;2.44;100.00;97306.75;5054724;28;20186;-94
2020/12/17 04:06:21;;;;;;;12.63;9.63;;;;;;;2.37;100.00;97308.00;5054451;28;20198;-94
2020/12/17 04:08:49;;;;;;;11.50;7.87;;;;;;;2.35;100.00;97305.47;5053459;28;20229;-94
2020/12/17 04:11:16;;;;;;;10.10;8.33;;;;;;;2.37;100.00;97308.84;5054490;28;20209;-93
2020/12/17 04:13:43;;;;;;;9.00;7.50;;;;;;;2.37;100.00;97316.63;5054233;28;20202;-89
2020/12/17 04:16:09;;;;;;;9.23;6.40;;;;;;;2.20;100.00;97308.06;5054175;28;20205;-91
2020/12/17 04:18:36;;;;;;;12.07;9.53;;;;;;;2.24;100.00;97314.75;5054374;28;20229;-91
2020/12/17 04:21:28;;;;;;;;;;;;;;;;;;;;;
2020/12/17 04:24:13;;;;;;;9.60;8.20;;;;;;;2.09;100.00;97308.63;5002123;28;20206;-92
2020/12/17 04:26:40;;;;;;;9.87;7.10;;;;;;;2.04;100.00;97310.63;5033220;28;20646;-91
2020/12/17 04:29:07;;;;;;;10.50;7.33;;;;;;;2.12;100.00;97311.06;5033945;28;20245;-90
2020/12/17 04:31:34;;;;;;;10.63;7.37;;;;;;;2.30;100.00;97317.88;5033684;28;20304;-90
2020/12/17 04:34:01;;;;;;;12.10;8.67;;;;;;;2.30;100.00;97304.91;5033627;28;20737;-92
2020/12/17 04:36:27;;;;;;;10.77;8.43;;;;;;;2.32;100.00;97304.81;5033881;28;20198;-91
2020/12/17 04:38:54;;;;;;;9.80;7.60;;;;;;;2.15;100.00;97313.50;5038156;28;20201;-90
2020/12/17 04:41:25;;;;;;;9.07;8.13;;;;;;;2.05;100.00;97317.50;5037708;28;20230;-89
2020/12/17 04:43:52;;;;;;;7.63;5.67;;;;;;;2.16;100.00;97314.34;5033527;28;20241;-92
2020/12/17 04:46:20;;;;;;;7.10;5.70;;;;;;;2.24;100.00;97315.59;5044754;28;20281;-90
2020/12/17 04:48:47;;;;;;;8.23;6.47;;;;;;;2.35;100.00;97309.81;5052666;28;20694;-91
2020/12/17 04:51:15;;;;;;;9.57;7.00;;;;;;;2.33;100.00;97322.06;5052325;28;20205;-92
2020/12/17 04:53:45;;;;;;;9.97;7.50;;;;;;;2.12;100.00;97319.69;5051354;28;20233;-90
2020/12/17 04:56:14;;;;;;;10.97;8.27;;;;;;;2.25;100.00;97322.47;5053296;28;20257;-91
2020/12/17 04:58:48;;;;;;;10.93;9.43;;;;;;;2.40;100.00;97320.81;5052547;28;20198;-91
2020/12/17 05:01:16;;;;;;;12.40;9.60;;;;;;;2.20;100.00;97321.88;5032569;28;20202;-91
2020/12/17 05:03:46;;;;;;;10.10;8.37;;;;;;;2.26;100.00;97318.97;5032493;28;20194;-90
2020/12/17 05:06:21;;;;;;;10.37;8.40;;;;;;;2.19;100.00;97320.19;5032220;28;20222;-91
2020/12/17 05:08:48;;;;;;;11.97;8.87;;;;;;;1.97;100.00;97322.22;5032735;28;20236;-90
2020/12/17 05:11:15;;;;;;;8.97;7.23;;;;;;;1.87;100.00;97324.44;5032679;28;20237;-90
2020/12/17 05:13:43;;;;;;;9.60;6.57;;;;;;;1.84;100.00;97319.47;5032408;28;20190;-91
2020/12/17 05:16:10;;;;;;;8.73;6.10;;;;;;;1.90;100.00;97319.13;5032085;28;20206;-91
2020/12/17 05:18:37;;;;;;;8.47;6.77;;;;;;;1.96;100.00;97325.75;5032715;28;20205;-92
2020/12/17 05:21:04;;;;;;;8.60;7.30;;;;;;;2.00;100.00;97324.66;5032537;28;20297;-92
2020/12/17 05:23:32;;;;;;;7.93;6.30;;;;;;;1.99;100.00;97318.66;5032932;28;20206;-91
2020/12/17 05:26:01;;;;;;;9.93;7.30;;;;;;;1.96;100.00;97318.81;5032848;28;20203;-91
2020/12/17 05:28:28;;;;;;;8.60;6.70;;;;;;;2.02;100.00;97318.50;5032864;28;20261;-90
2020/12/17 05:30:56;;;;;;;7.47;5.57;;;;;;;2.24;100.00;97313.00;5034086;28;20241;-91
2020/12/17 05:33:23;;;;;;;10.50;6.47;;;;;;;2.29;100.00;97323.16;5032923;28;20230;-90
2020/12/17 05:35:50;;;;;;;9.47;6.83;;;;;;;2.37;100.00;97316.63;5033617;28;20212;-90
2020/12/17 05:38:22;;;;;;;8.03;6.43;;;;;;;2.07;100.00;97326.84;5033164;28;20571;-90
2020/12/17 05:40:49;;;;;;;10.83;9.03;;;;;;;1.85;100.00;97336.69;5033027;28;20174;-90
2020/12/17 05:43:22;;;;;;;11.93;9.80;;;;;;;2.04;100.00;97328.78;5033073;28;20657;-90
2020/12/17 05:45:49;;;;;;;9.93;7.53;;;;;;;1.95;100.00;97334.44;5032977;28;20198;-91
2020/12/17 05:48:18;;;;;;;9.97;7.27;;;;;;;1.88;100.00;97328.75;5032984;28;20323;-90
2020/12/17 05:50:54;;;;;;;10.53;7.73;;;;;;;2.00;100.00;97335.88;5033091;28;20199;-90
2020/12/17 05:53:21;;;;;;;9.83;7.17;;;;;;;2.09;100.00;97340.59;5033015;28;20678;-90
2020/12/17 05:55:51;;;;;;;11.57;6.83;;;;;;;2.30;100.00;97336.03;5032948;28;20710;-90
2020/12/17 05:58:18;;;;;;;32.57;23.50;;;;;;;2.37;100.00;97339.13;5033175;28;20660;-90
2020/12/17 06:00:45;;;;;;;14.90;11.70;;;;;;;2.34;100.00;97344.47;5032877;28;20704;-89
2020/12/17 06:03:12;;;;;;;13.53;9.80;;;;;;;2.38;100.00;97348.59;5033053;28;20198;-90
2020/12/17 06:05:47;;;;;;;9.67;7.60;;;;;;;2.12;100.00;97348.22;5033191;28;20224;-90
2020/12/17 06:08:18;;;;;;;8.73;6.37;;;;;;;2.06;100.00;97348.53;5033081;28;20233;-89
2020/12/17 06:10:48;;;;;;;13.67;11.60;;;;;;;1.96;100.00;97344.72;5032548;28;20194;-89
2020/12/17 06:13:16;;;;;;;16.87;12.37;;;;;;;1.96;100.00;97357.69;5032949;28;20206;-89
2020/12/17 06:15:45;;;;;;;15.83;10.27;;;;;;;2.05;100.00;97353.81;5032632;28;20203;-90
2020/12/17 06:18:13;;;;;;;9.10;6.60;;;;;;;1.96;100.00;97362.03;5032903;28;20280;-90
2020/12/17 06:20:43;;;;;;;8.53;6.37;;;;;;;2.00;100.00;97361.81;5032663;28;20680;-90
2020/12/17 06:23:13;;;;;;;9.67;7.30;;;;;;;1.93;100.00;97363.03;5032934;28;20207;-90
2020/12/17 06:25:41;;;;;;;7.77;6.60;;;;;;;1.86;100.00;97365.09;5033548;28;20606;-90
2020/12/17 06:28:36;;;;;;;10.73;7.27;;;;;;;1.94;100.00;97366.47;5032752;28;20280;-90
2020/12/17 06:31:04;;;;;;;12.17;7.70;;;;;;;1.88;100.00;97359.84;5032435;28;20261;-90
2020/12/17 06:33:35;;;;;;;9.67;7.60;;;;;;;2.00;100.00;97358.38;5036217;28;20230;-89
2020/12/17 06:36:07;;;;;;;9.07;6.77;;;;;;;2.19;100.00;97363.47;5036697;28;20281;-89
2020/12/17 06:38:36;;;;;;;8.20;6.50;;;;;;;2.18;100.00;97365.19;5038377;28;20187;-90
2020/12/17 06:41:17;;;;;;;38.50;18.47;;;;;;;2.06;100.00;97368.44;5036813;28;20659;-91
2020/12/17 06:43:44;;;;;;;14.37;9.67;;;;;;;2.06;100.00;97371.88;5036009;28;20198;-91
2020/12/17 06:46:33;;;;;;;9.07;6.63;;;;;;;2.03;100.00;97366.84;5036034;28;20675;-90
2020/12/17 06:49:01;;;;;;;11.93;8.47;;;;;;;1.98;100.00;97374.03;5036319;28;20267;-90
2020/12/17 06:51:39;;;;;;;20.60;12.70;;;;;;;2.05;100.00;97382.31;5037245;28;20307;-91
2020/12/17 06:54:08;;;;;;;15.47;11.63;;;;;;;2.12;100.00;97388.88;5037918;28;20225;-90
2020/12/17 06:56:38;;;;;;;10.57;8.60;;;;;;;2.06;100.00;97390.03;5039971;28;20234;-90
2020/12/17 06:59:16;;;;;;;12.37;8.53;;;;;;;2.02;100.00;97388.50;5035979;28;20198;-90
2020/12/17 07:01:43;;;;;;;8.53;6.60;;;;;;;1.97;100.00;97390.47;5036556;28;20281;-89
2020/12/17 07:04:10;;;;;;;9.83;7.93;;;;;;;2.01;100.00;97394.63;5036836;28;20191;-89
2020/12/17 07:06:37;;;;;;;11.07;8.53;;;;;;;2.20;100.00;97391.91;5037428;28;20233;-91
2020/12/17 07:09:05;;;;;;;10.60;7.40;;;;;;;2.14;100.00;97392.22;5037285;28;20233;-90
2020/12/17 07:11:44;;;;;;;32.77;21.57;;;;;;;2.04;100.00;97394.44;5036711;28;20238;-89
2020/12/17 07:14:18;;;;;;;11.00;9.07;;;;;;;2.16;100.00;97395.56;5036466;28;20277;-89
2020/12/17 07:16:52;;;;;;;9.70;6.87;;;;;;;2.02;100.00;97398.88;5035725;28;20182;-89
2020/12/17 07:19:26;;;;;;;6.93;6.23;;;;;;;2.11;100.00;97401.00;5035544;28;20640;-89
2020/12/17 07:21:59;;;;;;;8.97;6.60;;;;;;;2.20;100.00;97396.25;5035037;28;20199;-89
2020/12/17 07:24:28;;;;;;;10.83;9.37;;;;;;;2.14;100.00;97400.00;5035394;28;20197;-89
2020/12/17 07:27:03;;;;;;;10.77;9.10;;;;;;;2.16;100.00;97399.94;5036311;28;20198;-89
2020/12/17 07:29:38;;;;;;;11.87;9.63;;;;;;;2.25;100.00;97391.66;5036351;28;20721;-89
2020/12/17 07:32:27;;;;;;;9.40;7.90;;;;;;;2.19;100.00;97399.78;5034964;28;20233;-90
2020/12/17 07:34:55;;;;;;;19.23;13.73;;;;;;;2.29;100.00;97396.63;5036239;28;20222;-90
2020/12/17 07:37:42;;;;;;;19.53;14.30;;;;;;;2.46;100.00;97398.34;5035219;28;20741;-90
2020/12/17 07:40:27;;;;;;;16.33;11.07;;;;;;;2.45;100.00;97388.03;5035385;28;20214;-89
2020/12/17 07:43:03;;;;;;;15.00;11.17;;;;;;;2.39;100.00;97391.78;5034272;28;20186;-91
2020/12/17 07:45:44;;;;;;;14.53;10.03;;;;;;;2.66;100.00;97392.06;5034511;28;20286;-90
2020/12/17 07:48:34;;;;;;;14.80;9.67;;;;;;;2.48;100.00;97380.91;5036431;28;20214;-90
2020/12/17 07:51:01;;;;;;;15.33;12.27;;;;;;;2.60;100.00;97387.22;5036210;28;20260;-90
2020/12/17 07:53:28;;;;;;;10.00;7.57;;;;;;;2.68;100.00;97392.00;5036883;28;20293;-89
2020/12/17 07:55:57;;;;;;;20.03;14.77;;;;;;;2.81;100.00;97387.81;5035152;28;20197;-90
2020/12/17 07:58:25;;;;;;;19.53;15.90;;;;;;;2.77;100.00;97388.88;5036969;28;20203;-90
2020/12/17 08:00:53;;;;;;;14.33;10.80;;;;;;;2.71;100.00;97394.44;5033122;28;20696;-91
2020/12/17 08:03:20;;;;;;;25.43;18.17;;;;;;;2.75;100.00;97393.34;5035848;28;20234;-90
2020/12/17 08:05:47;;;;;;;13.97;10.03;;;;;;;2.80;100.00;97396.50;5034129;28;20198;-89
2020/12/17 08:08:15;;;;;;;13.07;9.47;;;;;;;2.70;100.00;97395.34;5034354;28;20648;-90
2020/12/17 08:10:42;;;;;;;13.93;11.23;;;;;;;2.76;100.00;97392.41;5034050;28;20241;-90
2020/12/17 08:13:09;;;;;;;9.67;7.73;;;;;;;2.82;100.00;97394.69;5034215;28;20281;-90
2020/12/17 08:15:37;;;;;;;8.23;6.83;;;;;;;2.83;100.00;97396.34;5034362;28;20261;-90
2020/12/17 08:18:05;;;;;;;6.80;5.90;;;;;;;2.86;100.00;97386.63;5034136;28;20206;-90
2020/12/17 08:20:32;;;;;;;7.13;5.67;;;;;;;2.89;100.00;97393.44;5034026;28;20337;-91
2020/12/17 08:22:59;;;;;;;7.27;6.23;;;;;;;2.71;100.00;97391.84;5033981;28;20245;-91
2020/12/17 08:25:28;;;;;;;9.13;7.13;;;;;;;2.89;100.00;97390.00;5033927;28;20253;-91
2020/12/17 08:27:54;;;;;;;12.70;6.70;;;;;;;2.85;100.00;97392.75;5033739;28;20199;-90
2020/12/17 08:30:22;;;;;;;8.10;6.23;;;;;;;2.94;100.00;97391.41;5033703;28;20238;-91
2020/12/17 08:32:52;;;;;;;5.80;4.47;;;;;;;2.99;100.00;97386.81;5033466;28;20199;-89
2020/12/17 08:35:23;;;;;;;6.43;5.47;;;;;;;3.12;100.00;97392.19;5033587;28;20286;-90
2020/12/17 08:37:51;;;;;;;8.30;7.37;;;;;;;3.04;100.00;97392.56;5033361;28;20198;-90
2020/12/17 08:40:23;;;;;;;8.43;7.43;;;;;;;3.03;100.00;97390.91;5033846;28;20195;-91
2020/12/17 08:42:55;;;;;;;12.47;9.77;;;;;;;3.05;100.00;97386.47;5033942;28;20195;-90
2020/12/17 08:45:25;;;;;;;9.50;5.83;;;;;;;2.98;100.00;97386.88;5033688;28;20209;-90
2020/12/17 08:47:57;;;;;;;5.37;4.63;;;;;;;2.95;100.00;97380.13;5033588;28;20199;-91
2020/12/17 08:50:26;;;;;;;6.00;5.27;;;;;;;3.19;100.00;97380.53;5033644;28;20182;-90
2020/12/17 08:52:53;;;;;;;11.47;10.30;;;;;;;2.99;100.00;97383.38;5033638;28;20242;-91
2020/12/17 08:55:23;;;;;;;7.10;6.40;;;;;;;2.97;100.00;97387.81;5033057;28;20234;-91
2020/12/17 08:57:49;;;;;;;5.33;4.73;;;;;;;2.98;100.00;97379.94;5033323;28;20190;-90
2020/12/17 09:00:19;;;;;;;8.70;6.17;;;;;;;2.93;100.00;97376.75;5033400;28;20725;-91
2020/12/17 09:02:46;;;;;;;7.63;6.20;;;;;;;2.95;100.00;97382.72;5033582;28;20241;-90
2020/12/17 09:05:16;;;;;;;25.60;20.07;;;;;;;3.03;100.00;97383.13;5034802;28;20640;-91
2020/12/17 09:07:46;;;;;;;21.43;15.67;;;;;;;3.01;100.00;97378.91;5033123;28;20285;-90
2020/12/17 09:10:17;;;;;;;10.27;8.50;;;;;;;2.80;100.00;97376.56;5033494;28;20207;-90
2020/12/17 09:12:44;;;;;;;6.93;5.47;;;;;;;3.00;100.00;97379.84;5034727;28;20194;-90
2020/12/17 09:15:12;;;;;;;14.93;9.63;;;;;;;3.02;100.00;97381.44;5033374;28;20208;-90
2020/12/17 09:17:40;;;;;;;7.90;5.90;;;;;;;2.88;100.00;97383.13;5033036;28;20284;-90
2020/12/17 09:20:17;;;;;;;6.83;5.27;;;;;;;2.89;100.00;97377.00;5033060;28;20281;-89
2020/12/17 09:22:45;;;;;;;6.97;5.53;;;;;;;2.84;100.00;97374.66;5033442;28;20565;-91
2020/12/17 09:25:12;;;;;;;8.90;7.97;;;;;;;3.04;100.00;97368.38;5033430;28;20195;-90
2020/12/17 09:27:40;;;;;;;11.83;9.10;;;;;;;3.12;100.00;97373.13;5033427;28;20241;-90
2020/12/17 09:30:09;;;;;;;15.30;10.83;;;;;;;3.01;100.00;97364.19;5032867;28;20246;-89
2020/12/17 09:32:38;;;;;;;12.43;8.83;;;;;;;3.04;100.00;97366.59;5033146;28;20201;-90
2020/12/17 09:35:08;;;;;;;8.40;6.30;;;;;;;3.01;100.00;97371.13;5033136;28;20684;-90
2020/12/17 09:37:36;;;;;;;10.13;8.27;;;;;;;3.12;100.00;97361.00;5033081;28;20209;-90
2020/12/17 09:40:06;;;;;;;7.73;5.97;;;;;;;2.99;100.00;97358.25;5032870;28;20198;-89
2020/12/17 09:42:32;;;;;;;7.70;6.23;;;;;;;2.82;100.00;97355.75;5033112;28;20201;-89
2020/12/17 09:45:11;;;;;;;6.40;4.83;;;;;;;2.93;100.00;97350.78;5033037;28;20195;-89
2020/12/17 09:47:38;;;;;;;5.80;5.07;;;;;;;3.03;100.00;97354.53;5033150;28;20379;-89
2020/12/17 09:50:13;;;;;;;5.97;5.37;;;;;;;3.07;100.00;97357.81;5032811;28;20262;-90
2020/12/17 09:52:41;;;;;;;6.23;5.57;;;;;;;3.12;100.00;97362.72;5032809;28;20237;-90
2020/12/17 09:55:08;;;;;;;7.00;6.30;;;;;;;3.20;100.00;97357.97;5032601;28;20199;-89
2020/12/17 09:57:37;;;;;;;8.53;5.70;;;;;;;3.12;100.00;97357.53;5032609;28;20281;-90
2020/12/17 10:00:05;;;;;;;8.30;6.77;;;;;;;3.16;100.00;97356.47;5032546;28;20205;-88
2020/12/17 10:02:32;;;;;;;7.67;5.70;;;;;;;3.27;100.00;97354.09;5032745;28;20194;-89
2020/12/17 10:04:59;;;;;;;9.40;8.03;;;;;;;3.22;100.00;97351.78;5032440;28;20230;-89
2020/12/17 10:07:25;;;;;;;12.97;9.07;;;;;;;3.09;100.00;97349.00;5034460;28;20208;-89
2020/12/17 10:09:53;;;;;;;12.27;10.23;;;;;;;2.97;100.00;97352.28;5036502;28;20226;-88
2020/12/17 10:12:20;;;;;;;7.23;6.33;;;;;;;2.99;100.00;97352.22;5036508;28;20234;-88
2020/12/17 10:14:48;;;;;;;8.03;6.30;;;;;;;2.96;100.00;97350.63;5036258;28;20286;-89
2020/12/17 10:17:15;;;;;;;8.87;7.07;;;;;;;3.05;100.00;97357.91;5036033;28;20201;-88
2020/12/17 10:19:42;;;;;;;9.67;6.17;;;;;;;3.18;100.00;97349.41;5036068;28;20286;-88
2020/12/17 10:22:08;;;;;;;7.17;6.23;;;;;;;3.18;100.00;97354.59;5036020;28;20198;-89
2020/12/17 10:24:35;;;;;;;9.40;7.30;;;;;;;3.06;100.00;97346.59;5035989;28;20238;-89
2020/12/17 10:27:03;;;;;;;7.23;6.20;;;;;;;3.07;100.00;97345.66;5036148;28;20194;-89
2020/12/17 10:29:30;;;;;;;8.70;6.87;;;;;;;2.91;100.00;97337.06;5035959;28;20308;-89
2020/12/17 10:31:57;;;;;;;7.33;5.87;;;;;;;2.83;100.00;97336.63;5035941;28;20245;-88
2020/12/17 10:34:25;;;;;;;8.67;6.87;;;;;;;2.87;100.00;97345.91;5036306;28;20260;-89
2020/12/17 10:36:52;;;;;;;7.57;5.13;;;;;;;3.06;100.00;97344.00;5035667;28;20691;-89
2020/12/17 10:39:18;;;;;;;8.10;5.77;;;;;;;3.07;100.00;97332.66;5035906;28;20198;-89
2020/12/17 10:41:45;;;;;;;7.20;5.77;;;;;;;3.08;100.00;97325.72;5035695;28;20194;-88
2020/12/17 10:44:13;;;;;;;6.60;4.90;;;;;;;3.03;100.00;97319.94;5036011;28;20919;-88
2020/12/17 10:46:40;;;;;;;6.20;5.60;;;;;;;3.17;100.00;97317.41;5036183;28;20659;-89
2020/12/17 10:49:09;;;;;;;6.70;6.00;;;;;;;3.20;100.00;97306.84;5035718;28;20226;-88
2020/12/17 10:51:36;;;;;;;10.17;8.33;;;;;;;3.15;100.00;97311.44;5035607;28;20210;-88
2020/12/17 10:54:03;;;;;;;12.33;9.97;;;;;;;3.23;100.00;97305.84;5035569;28;20241;-89
2020/12/17 10:56:29;;;;;;;7.97;6.60;;;;;;;3.35;100.00;97299.91;5035922;28;20195;-89
2020/12/17 10:58:56;;;;;;;9.90;6.87;;;;;;;3.21;100.00;97308.50;5035564;28;20221;-88
2020/12/17 11:01:24;;;;;;;8.53;6.10;;;;;;;3.25;100.00;97309.16;5035611;28;20199;-89
2020/12/17 11:03:52;;;;;;;6.50;5.90;;;;;;;3.24;100.00;97315.28;5036216;28;20203;-88
2020/12/17 11:06:21;;;;;;;11.53;8.53;;;;;;;3.21;100.00;97307.69;5036218;28;20199;-89
2020/12/17 11:08:48;;;;;;;13.10;9.13;;;;;;;3.26;100.00;97308.25;5035089;28;20748;-95
2020/12/17 11:11:16;;;;;;;15.43;10.10;;;;;;;3.25;100.00;97303.97;5035802;28;20273;-92
2020/12/17 11:13:43;;;;;;;10.13;8.53;;;;;;;3.23;100.00;97303.25;5035110;28;20211;-90
2020/12/17 11:16:20;;;;;;;;;;;;;;;;;;;;;
2020/12/17 11:18:48;;;;;;;10.13;7.67;;;;;;;3.15;100.00;97306.25;5039596;28;20289;-90
2020/12/17 11:21:19;;;;;;;8.70;6.80;;;;;;;3.17;100.00;97301.81;5034993;28;20249;-89
2020/12/17 11:23:46;;;;;;;9.70;7.70;;;;;;;3.14;100.00;97308.94;5034923;28;20187;-91
2020/12/17 11:26:13;;;;;;;10.83;7.93;;;;;;;3.28;100.00;97306.41;5035839;28;20289;-90
2020/12/17 11:28:40;;;;;;;9.67;7.30;;;;;;;3.24;100.00;97297.94;5034678;28;20730;-89
2020/12/17 11:31:08;;;;;;;9.67;7.87;;;;;;;3.12;100.00;97298.66;5034918;28;20652;-90
2020/12/17 11:33:35;;;;;;;8.80;7.70;;;;;;;3.12;100.00;97296.06;5034833;28;20249;-90
2020/12/17 11:36:05;;;;;;;9.80;7.83;;;;;;;2.94;100.00;97303.09;5035631;28;20562;-90